sensor_id;sensor_type;location;lat;lon;timestamp;pressure;altitude;pressure_sealevel;temperature;humidity
79791;BME280;69278;52.220;5.172;2023-10-09T00:01:07;102063.38;;;15.87;84.12
79791;BME280;69278;52.220;5.172;2023-10-09T00:03:41;102042.03;;;15.79;83.92
79791;BME280;69278;52.220;5.172;2023-10-09T00:06:11;102056.41;;;15.86;83.88
79791;BME280;69278;52.220;5.172;2023-10-09T00:08:40;102054.03;;;15.83;83.79
79791;BME280;69278;52.220;5.172;2023-10-09T00:11:11;102062.00;;;15.83;83.98
79791;BME280;69278;52.220;5.172;2023-10-09T00:13:44;102060.31;;;15.82;83.89
79791;BME280;69278;52.220;5.172;2023-10-09T00:16:20;102060.31;;;15.82;84.29
79791;BME280;69278;52.220;5.172;2023-10-09T00:18:50;102053.34;;;15.81;84.18
79791;BME280;69278;52.220;5.172;2023-10-09T00:21:17;102058.66;;;15.81;84.16
79791;BME280;69278;52.220;5.172;2023-10-09T00:23:47;102026.78;;;15.62;84.20
79791;BME280;69278;52.220;5.172;2023-10-09T00:26:21;102051.81;;;15.78;84.30
79791;BME280;69278;52.220;5.172;2023-10-09T00:28:47;102059.09;;;15.76;84.27
79791;BME280;69278;52.220;5.172;2023-10-09T00:31:18;102059.78;;;15.78;84.41
79791;BME280;69278;52.220;5.172;2023-10-09T00:33:53;102062.00;;;15.83;84.53
79791;BME280;69278;52.220;5.172;2023-10-09T00:36:21;102059.19;;;15.84;84.66
79791;BME280;69278;52.220;5.172;2023-10-09T00:38:55;102058.06;;;15.87;84.73
79791;BME280;69278;52.220;5.172;2023-10-09T00:41:21;102053.63;;;15.87;84.92
79791;BME280;69278;52.220;5.172;2023-10-09T00:43:51;102048.03;;;15.90;84.84
79791;BME280;69278;52.220;5.172;2023-10-09T00:46:21;102009.31;;;15.69;84.92
79791;BME280;69278;52.220;5.172;2023-10-09T00:48:49;102047.75;;;15.93;84.91
79791;BME280;69278;52.220;5.172;2023-10-09T00:51:16;102035.84;;;15.98;84.68
79791;BME280;69278;52.220;5.172;2023-10-09T00:53:47;102040.03;;;16.00;84.81
79791;BME280;69278;52.220;5.172;2023-10-09T00:56:19;102023.09;;;16.01;84.85
79791;BME280;69278;52.220;5.172;2023-10-09T00:58:58;101987.38;;;15.76;85.22
79791;BME280;69278;52.220;5.172;2023-10-09T01:01:35;102019.47;;;16.02;84.95
79791;BME280;69278;52.220;5.172;2023-10-09T01:04:05;102024.22;;;16.08;84.94
79791;BME280;69278;52.220;5.172;2023-10-09T01:06:45;102022.38;;;16.09;85.41
79791;BME280;69278;52.220;5.172;2023-10-09T01:09:30;102015.25;;;16.09;85.13
79791;BME280;69278;52.220;5.172;2023-10-09T01:12:04;102016.78;;;16.12;84.99
79791;BME280;69278;52.220;5.172;2023-10-09T01:14:31;102017.34;;;16.15;85.15
79791;BME280;69278;52.220;5.172;2023-10-09T01:17:04;101965.50;;;15.92;85.03
79791;BME280;69278;52.220;5.172;2023-10-09T01:19:38;102014.94;;;16.22;85.02
79791;BME280;69278;52.220;5.172;2023-10-09T01:22:04;102008.78;;;16.21;85.38
79791;BME280;69278;52.220;5.172;2023-10-09T01:24:39;101995.94;;;16.17;85.23
79791;BME280;69278;52.220;5.172;2023-10-09T01:27:06;102015.81;;;16.22;85.26
79791;BME280;69278;52.220;5.172;2023-10-09T01:29:42;101996.59;;;16.28;85.28
79791;BME280;69278;52.220;5.172;2023-10-09T01:32:10;101992.97;;;16.29;85.32
79791;BME280;69278;52.220;5.172;2023-10-09T01:34:44;101979.97;;;16.26;85.28
79791;BME280;69278;52.220;5.172;2023-10-09T01:37:18;101988.06;;;16.34;85.68
79791;BME280;69278;52.220;5.172;2023-10-09T01:39:47;101991.56;;;16.35;85.18
79791;BME280;69278;52.220;5.172;2023-10-09T01:42:15;101993.38;;;16.34;85.49
79791;BME280;69278;52.220;5.172;2023-10-09T01:44:58;101992.38;;;16.35;85.63
79791;BME280;69278;52.220;5.172;2023-10-09T01:47:34;101980.94;;;16.35;85.54
79791;BME280;69278;52.220;5.172;2023-10-09T01:50:05;101976.28;;;16.37;85.52
79791;BME280;69278;52.220;5.172;2023-10-09T01:52:38;101980.75;;;16.36;85.63
79791;BME280;69278;52.220;5.172;2023-10-09T01:55:05;101970.13;;;16.36;85.71
79791;BME280;69278;52.220;5.172;2023-10-09T01:57:34;101969.28;;;16.36;85.59
79791;BME280;69278;52.220;5.172;2023-10-09T02:00:01;101962.84;;;16.38;85.59
79791;BME280;69278;52.220;5.172;2023-10-09T02:02:29;101966.34;;;16.39;85.75
79791;BME280;69278;52.220;5.172;2023-10-09T02:05:05;101971.66;;;16.39;85.96
79791;BME280;69278;52.220;5.172;2023-10-09T02:07:42;101947.66;;;16.21;86.03
79791;BME280;69278;52.220;5.172;2023-10-09T02:10:20;101974.44;;;16.37;85.93
79791;BME280;69278;52.220;5.172;2023-10-09T02:12:57;101956.28;;;16.33;86.13
79791;BME280;69278;52.220;5.172;2023-10-09T02:15:29;101969.84;;;16.39;86.44
79791;BME280;69278;52.220;5.172;2023-10-09T02:18:19;101927.00;;;16.15;86.22
79791;BME280;69278;52.220;5.172;2023-10-09T02:21:04;101962.84;;;16.38;86.70
79791;BME280;69278;52.220;5.172;2023-10-09T02:23:33;101963.41;;;16.42;86.25
79791;BME280;69278;52.220;5.172;2023-10-09T02:26:08;101945.81;;;16.31;86.16
79791;BME280;69278;52.220;5.172;2023-10-09T02:28:36;101966.88;;;16.42;86.54
79791;BME280;69278;52.220;5.172;2023-10-09T02:31:12;101951.25;;;16.39;86.76
79791;BME280;69278;52.220;5.172;2023-10-09T02:33:39;101958.59;;;16.45;86.36
79791;BME280;69278;52.220;5.172;2023-10-09T02:36:06;101955.81;;;16.47;86.70
79791;BME280;69278;52.220;5.172;2023-10-09T02:38:33;101952.16;;;16.48;86.58
79791;BME280;69278;52.220;5.172;2023-10-09T02:41:02;101939.88;;;16.47;86.61
79791;BME280;69278;52.220;5.172;2023-10-09T02:43:32;101942.38;;;16.48;86.58
79791;BME280;69278;52.220;5.172;2023-10-09T02:46:17;101936.88;;;16.50;86.79
79791;BME280;69278;52.220;5.172;2023-10-09T02:48:48;101928.66;;;16.53;86.77
79791;BME280;69278;52.220;5.172;2023-10-09T02:51:19;101925.28;;;16.51;86.70
79791;BME280;69278;52.220;5.172;2023-10-09T02:56:19;101919.25;;;16.58;86.87
79791;BME280;69278;52.220;5.172;2023-10-09T02:59:02;101918.25;;;16.59;86.83
79791;BME280;69278;52.220;5.172;2023-10-09T03:01:37;101911.28;;;16.58;86.98
79791;BME280;69278;52.220;5.172;2023-10-09T03:04:04;101919.66;;;16.64;87.00
79791;BME280;69278;52.220;5.172;2023-10-09T03:06:32;101909.97;;;16.63;87.03
79791;BME280;69278;52.220;5.172;2023-10-09T03:09:01;101918.66;;;16.65;87.05
79791;BME280;69278;52.220;5.172;2023-10-09T03:11:35;101921.69;;;16.70;86.94
79791;BME280;69278;52.220;5.172;2023-10-09T03:14:03;101914.56;;;16.70;86.93
79791;BME280;69278;52.220;5.172;2023-10-09T03:16:30;101912.41;;;16.74;86.93
79791;BME280;69278;52.220;5.172;2023-10-09T03:18:57;101904.59;;;16.72;86.90
79791;BME280;69278;52.220;5.172;2023-10-09T03:21:23;101916.69;;;16.84;86.43
79791;BME280;69278;52.220;5.172;2023-10-09T03:23:50;101910.47;;;16.93;86.13
79791;BME280;69278;52.220;5.172;2023-10-09T03:26:19;101905.31;;;17.09;85.84
79791;BME280;69278;52.220;5.172;2023-10-09T03:28:49;101916.41;;;17.22;85.35
79791;BME280;69278;52.220;5.172;2023-10-09T03:31:15;101911.31;;;17.29;84.73
79791;BME280;69278;52.220;5.172;2023-10-09T03:33:42;101916.69;;;17.37;84.55
79791;BME280;69278;52.220;5.172;2023-10-09T03:36:08;101926.88;;;17.42;84.12
79791;BME280;69278;52.220;5.172;2023-10-09T03:38:38;101948.03;;;17.43;84.00
79791;BME280;69278;52.220;5.172;2023-10-09T03:41:06;101953.38;;;17.43;83.94
79791;BME280;69278;52.220;5.172;2023-10-09T03:43:33;101956.53;;;17.47;83.75
79791;BME280;69278;52.220;5.172;2023-10-09T03:46:10;101959.06;;;17.48;83.90
79791;BME280;69278;52.220;5.172;2023-10-09T03:48:50;101951.09;;;17.48;83.64
79791;BME280;69278;52.220;5.172;2023-10-09T03:51:18;101944.75;;;17.49;83.61
79791;BME280;69278;52.220;5.172;2023-10-09T03:53:48;101941.81;;;17.52;83.47
79791;BME280;69278;52.220;5.172;2023-10-09T03:56:15;101937.75;;;17.48;83.22
79791;BME280;69278;52.220;5.172;2023-10-09T03:58:43;101949.22;;;17.58;83.13
79791;BME280;69278;52.220;5.172;2023-10-09T04:01:21;101907.56;;;17.40;83.03
79791;BME280;69278;52.220;5.172;2023-10-09T04:04:05;101928.88;;;17.57;82.91
79791;BME280;69278;52.220;5.172;2023-10-09T04:06:33;101933.66;;;17.54;82.95
79791;BME280;69278;52.220;5.172;2023-10-09T04:09:01;101938.56;;;17.58;82.86
79791;BME280;69278;52.220;5.172;2023-10-09T04:12:00;101944.00;;;17.57;83.05
79791;BME280;69278;52.220;5.172;2023-10-09T04:14:40;101920.94;;;17.48;82.88
79791;BME280;69278;52.220;5.172;2023-10-09T04:17:27;101946.88;;;17.63;82.84
79791;BME280;69278;52.220;5.172;2023-10-09T04:20:01;101940.41;;;17.66;82.77
79791;BME280;69278;52.220;5.172;2023-10-09T04:22:46;101930.28;;;17.69;82.42
79791;BME280;69278;52.220;5.172;2023-10-09T04:25:27;101929.44;;;17.69;82.64
79791;BME280;69278;52.220;5.172;2023-10-09T04:27:59;101935.81;;;17.76;82.44
79791;BME280;69278;52.220;5.172;2023-10-09T04:30:41;101924.03;;;17.78;82.19
79791;BME280;69278;52.220;5.172;2023-10-09T04:33:13;101911.72;;;17.77;82.05
79791;BME280;69278;52.220;5.172;2023-10-09T04:36:05;101927.06;;;17.83;81.85
79791;BME280;69278;52.220;5.172;2023-10-09T04:38:43;101916.94;;;17.87;81.89
79791;BME280;69278;52.220;5.172;2023-10-09T04:41:22;101926.44;;;17.89;81.75
79791;BME280;69278;52.220;5.172;2023-10-09T04:43:59;101905.13;;;17.89;81.66
79791;BME280;69278;52.220;5.172;2023-10-09T04:46:49;101899.81;;;17.98;81.47
79791;BME280;69278;52.220;5.172;2023-10-09T04:49:38;101908.16;;;17.95;81.38
79791;BME280;69278;52.220;5.172;2023-10-09T04:52:23;101921.31;;;17.96;81.42
79791;BME280;69278;52.220;5.172;2023-10-09T04:54:58;101922.66;;;18.00;81.21
79791;BME280;69278;52.220;5.172;2023-10-09T04:57:46;101927.69;;;18.03;81.26
79791;BME280;69278;52.220;5.172;2023-10-09T05:00:17;101934.69;;;18.04;81.13
79791;BME280;69278;52.220;5.172;2023-10-09T05:02:54;101943.00;;;18.01;81.06
79791;BME280;69278;52.220;5.172;2023-10-09T05:05:25;101952.97;;;17.99;81.17
79791;BME280;69278;52.220;5.172;2023-10-09T05:08:16;101950.47;;;17.98;81.14
79791;BME280;69278;52.220;5.172;2023-10-09T05:10:51;101949.47;;;17.99;81.08
79791;BME280;69278;52.220;5.172;2023-10-09T05:13:29;101958.63;;;17.96;81.22
79791;BME280;69278;52.220;5.172;2023-10-09T05:16:08;101952.44;;;17.96;81.23
79791;BME280;69278;52.220;5.172;2023-10-09T05:18:45;101961.13;;;17.98;81.33
79791;BME280;69278;52.220;5.172;2023-10-09T05:21:23;101979.03;;;17.87;82.24
79791;BME280;69278;52.220;5.172;2023-10-09T05:24:01;101956.00;;;17.78;82.18
79791;BME280;69278;52.220;5.172;2023-10-09T05:26:49;101960.34;;;17.79;82.01
79791;BME280;69278;52.220;5.172;2023-10-09T05:29:18;101976.34;;;17.79;82.48
79791;BME280;69278;52.220;5.172;2023-10-09T05:32:06;101979.13;;;17.78;82.71
79791;BME280;69278;52.220;5.172;2023-10-09T05:34:35;101974.44;;;17.72;83.02
79791;BME280;69278;52.220;5.172;2023-10-09T05:37:20;101976.94;;;17.73;83.06
79791;BME280;69278;52.220;5.172;2023-10-09T05:40:02;101971.78;;;17.72;83.17
79791;BME280;69278;52.220;5.172;2023-10-09T05:42:34;101977.47;;;17.77;83.18
79791;BME280;69278;52.220;5.172;2023-10-09T05:45:04;101977.78;;;17.74;83.03
79791;BME280;69278;52.220;5.172;2023-10-09T05:47:47;101985.00;;;17.81;82.79
79791;BME280;69278;52.220;5.172;2023-10-09T05:50:33;101974.72;;;17.86;82.65
79791;BME280;69278;52.220;5.172;2023-10-09T05:53:00;101954.75;;;17.90;82.39
79791;BME280;69278;52.220;5.172;2023-10-09T05:56:05;101951.78;;;17.94;82.03
79791;BME280;69278;52.220;5.172;2023-10-09T05:58:50;101944.16;;;17.99;81.96
79791;BME280;69278;52.220;5.172;2023-10-09T06:01:35;101935.00;;;18.01;81.66
79791;BME280;69278;52.220;5.172;2023-10-09T06:04:19;101954.50;;;18.02;82.01
79791;BME280;69278;52.220;5.172;2023-10-09T06:06:47;101909.25;;;17.84;82.30
79791;BME280;69278;52.220;5.172;2023-10-09T06:09:23;101950.47;;;17.98;82.68
79791;BME280;69278;52.220;5.172;2023-10-09T06:12:09;101943.03;;;17.83;83.11
79791;BME280;69278;52.220;5.172;2023-10-09T06:14:54;101929.34;;;17.78;83.45
79791;BME280;69278;52.220;5.172;2023-10-09T06:17:24;101926.31;;;17.73;83.88
79791;BME280;69278;52.220;5.172;2023-10-09T06:19:54;101916.31;;;17.67;84.07
79791;BME280;69278;52.220;5.172;2023-10-09T06:22:25;101931.06;;;17.62;84.26
79791;BME280;69278;52.220;5.172;2023-10-09T06:25:10;101914.88;;;17.55;84.54
79791;BME280;69278;52.220;5.172;2023-10-09T06:27:38;101931.38;;;17.59;84.70
79791;BME280;69278;52.220;5.172;2023-10-09T06:30:23;101934.09;;;17.49;84.75
79791;BME280;69278;52.220;5.172;2023-10-09T06:32:54;101961.75;;;17.48;84.96
79791;BME280;69278;52.220;5.172;2023-10-09T06:35:33;101982.38;;;17.46;86.10
79791;BME280;69278;52.220;5.172;2023-10-09T06:38:02;101948.72;;;17.27;85.30
79791;BME280;69278;52.220;5.172;2023-10-09T06:43:13;101977.25;;;17.35;86.36
79791;BME280;69278;52.220;5.172;2023-10-09T06:45:44;101983.25;;;17.37;86.18
79791;BME280;69278;52.220;5.172;2023-10-09T06:48:12;101990.66;;;17.43;86.28
79791;BME280;69278;52.220;5.172;2023-10-09T06:50:57;101972.84;;;17.44;86.57
79791;BME280;69278;52.220;5.172;2023-10-09T06:53:34;101956.97;;;17.34;86.53
79791;BME280;69278;52.220;5.172;2023-10-09T06:56:23;101979.53;;;17.48;86.49
79791;BME280;69278;52.220;5.172;2023-10-09T06:58:56;101985.72;;;17.48;86.68
79791;BME280;69278;52.220;5.172;2023-10-09T07:01:24;101971.38;;;17.49;86.89
79791;BME280;69278;52.220;5.172;2023-10-09T07:03:57;101970.88;;;17.46;87.06
79791;BME280;69278;52.220;5.172;2023-10-09T07:06:37;101976.56;;;17.51;86.89
79791;BME280;69278;52.220;5.172;2023-10-09T07:09:04;101975.59;;;17.52;86.97
79791;BME280;69278;52.220;5.172;2023-10-09T07:11:37;101980.94;;;17.52;87.62
79791;BME280;69278;52.220;5.172;2023-10-09T07:14:08;101971.97;;;17.53;87.00
79791;BME280;69278;52.220;5.172;2023-10-09T07:16:45;101960.16;;;17.55;87.03
79791;BME280;69278;52.220;5.172;2023-10-09T07:19:25;101946.00;;;17.55;87.06
79791;BME280;69278;52.220;5.172;2023-10-09T07:22:01;101937.84;;;17.56;87.32
79791;BME280;69278;52.220;5.172;2023-10-09T07:24:31;101902.41;;;17.56;87.14
79791;BME280;69278;52.220;5.172;2023-10-09T07:27:10;101894.06;;;17.59;87.16
79791;BME280;69278;52.220;5.172;2023-10-09T07:29:40;101895.59;;;17.61;86.96
79791;BME280;69278;52.220;5.172;2023-10-09T07:32:16;101910.28;;;17.65;87.25
79791;BME280;69278;52.220;5.172;2023-10-09T07:34:49;101909.44;;;17.65;87.29
79791;BME280;69278;52.220;5.172;2023-10-09T07:37:27;101927.44;;;17.63;87.47
79791;BME280;69278;52.220;5.172;2023-10-09T07:40:02;101945.31;;;17.70;87.39
79791;BME280;69278;52.220;5.172;2023-10-09T07:42:33;101955.78;;;17.72;87.57
79791;BME280;69278;52.220;5.172;2023-10-09T07:45:01;101958.16;;;17.75;87.41
79791;BME280;69278;52.220;5.172;2023-10-09T07:47:49;101958.97;;;17.75;87.35
79791;BME280;69278;52.220;5.172;2023-10-09T07:50:36;101955.84;;;17.80;87.63
79791;BME280;69278;52.220;5.172;2023-10-09T07:53:15;101953.03;;;17.81;87.40
79791;BME280;69278;52.220;5.172;2023-10-09T07:55:45;101916.59;;;17.64;87.52
79791;BME280;69278;52.220;5.172;2023-10-09T07:58:22;101930.00;;;17.72;87.57
79791;BME280;69278;52.220;5.172;2023-10-09T08:00:56;101972.94;;;17.95;87.59
79791;BME280;69278;52.220;5.172;2023-10-09T08:03:42;101984.28;;;17.97;87.48
79791;BME280;69278;52.220;5.172;2023-10-09T08:06:15;101980.63;;;17.98;87.32
79791;BME280;69278;52.220;5.172;2023-10-09T08:09:01;102001.63;;;18.01;87.38
79791;BME280;69278;52.220;5.172;2023-10-09T08:11:48;101987.31;;;18.02;87.34
79791;BME280;69278;52.220;5.172;2023-10-09T08:14:33;101993.84;;;18.08;87.32
79791;BME280;69278;52.220;5.172;2023-10-09T08:17:00;101983.19;;;18.08;87.09
79791;BME280;69278;52.220;5.172;2023-10-09T08:19:50;101990.69;;;18.12;87.30
79791;BME280;69278;52.220;5.172;2023-10-09T08:22:28;101993.84;;;18.08;86.95
79791;BME280;69278;52.220;5.172;2023-10-09T08:24:55;102003.91;;;18.14;86.78
79791;BME280;69278;52.220;5.172;2023-10-09T08:27:23;102015.53;;;18.13;86.91
79791;BME280;69278;52.220;5.172;2023-10-09T08:29:59;102028.56;;;18.16;86.85
79791;BME280;69278;52.220;5.172;2023-10-09T08:32:45;102043.72;;;18.15;86.99
79791;BME280;69278;52.220;5.172;2023-10-09T08:35:31;102038.59;;;18.22;86.96
79791;BME280;69278;52.220;5.172;2023-10-09T08:38:00;102032.94;;;18.25;86.84
79791;BME280;69278;52.220;5.172;2023-10-09T08:40:36;102043.81;;;18.31;86.65
79791;BME280;69278;52.220;5.172;2023-10-09T08:43:13;102049.69;;;18.35;86.82
79791;BME280;69278;52.220;5.172;2023-10-09T08:45:46;102005.88;;;18.12;86.68
79791;BME280;69278;52.220;5.172;2023-10-09T08:48:13;102055.88;;;18.35;86.30
79791;BME280;69278;52.220;5.172;2023-10-09T08:50:45;102054.38;;;18.41;86.30
79791;BME280;69278;52.220;5.172;2023-10-09T08:53:13;102050.56;;;18.43;86.33
79791;BME280;69278;52.220;5.172;2023-10-09T08:55:40;102056.59;;;18.45;86.21
79791;BME280;69278;52.220;5.172;2023-10-09T08:58:08;102054.47;;;18.49;86.25
79791;BME280;69278;52.220;5.172;2023-10-09T09:00:53;102056.53;;;18.55;86.01
79791;BME280;69278;52.220;5.172;2023-10-09T09:03:22;102055.38;;;18.58;85.88
79791;BME280;69278;52.220;5.172;2023-10-09T09:06:00;102003.38;;;18.36;85.98
79791;BME280;69278;52.220;5.172;2023-10-09T09:08:31;102060.59;;;18.67;85.63
79791;BME280;69278;52.220;5.172;2023-10-09T09:11:03;102066.28;;;18.72;85.69
79791;BME280;69278;52.220;5.172;2023-10-09T09:13:39;102077.28;;;18.77;85.35
79791;BME280;69278;52.220;5.172;2023-10-09T09:16:23;102083.69;;;18.84;84.81
79791;BME280;69278;52.220;5.172;2023-10-09T09:18:57;102074.34;;;18.88;85.23
79791;BME280;69278;52.220;5.172;2023-10-09T09:21:38;102071.03;;;18.94;84.62
79791;BME280;69278;52.220;5.172;2023-10-09T09:24:09;102021.41;;;18.76;84.41
79791;BME280;69278;52.220;5.172;2023-10-09T09:27:03;102067.06;;;19.06;84.35
79791;BME280;69278;52.220;5.172;2023-10-09T09:29:41;102060.44;;;19.10;84.28
79791;BME280;69278;52.220;5.172;2023-10-09T09:32:10;102067.41;;;19.11;84.06
79791;BME280;69278;52.220;5.172;2023-10-09T09:37:20;102065.47;;;19.21;83.49
79791;BME280;69278;52.220;5.172;2023-10-09T09:39:47;102066.97;;;19.24;83.05
79791;BME280;69278;52.220;5.172;2023-10-09T09:42:22;102064.81;;;19.28;82.81
79791;BME280;69278;52.220;5.172;2023-10-09T09:44:55;102067.00;;;19.32;82.48
79791;BME280;69278;52.220;5.172;2023-10-09T09:47:22;102065.56;;;19.38;82.53
79791;BME280;69278;52.220;5.172;2023-10-09T09:49:55;102063.19;;;19.43;82.27
79791;BME280;69278;52.220;5.172;2023-10-09T09:52:37;102057.53;;;19.46;81.87
79791;BME280;69278;52.220;5.172;2023-10-09T09:55:09;102063.88;;;19.53;81.36
79791;BME280;69278;52.220;5.172;2023-10-09T09:57:49;102059.06;;;19.56;81.04
79791;BME280;69278;52.220;5.172;2023-10-09T10:00:23;102043.19;;;19.47;80.33
79791;BME280;69278;52.220;5.172;2023-10-09T10:03:09;102032.81;;;19.44;79.84
79791;BME280;69278;52.220;5.172;2023-10-09T10:05:37;102061.72;;;19.64;79.47
79791;BME280;69278;52.220;5.172;2023-10-09T10:08:06;102071.25;;;19.67;79.44
79791;BME280;69278;52.220;5.172;2023-10-09T10:10:40;102060.22;;;19.70;79.04
79791;BME280;69278;52.220;5.172;2023-10-09T10:16:16;102067.94;;;19.73;77.96
79791;BME280;69278;52.220;5.172;2023-10-09T10:19:00;102065.75;;;19.76;77.49
79791;BME280;69278;52.220;5.172;2023-10-09T10:21:34;102074.09;;;19.81;77.54
79791;BME280;69278;52.220;5.172;2023-10-09T10:29:36;102100.00;;;19.89;76.42
79791;BME280;69278;52.220;5.172;2023-10-09T10:32:05;102082.63;;;19.85;76.68
79791;BME280;69278;52.220;5.172;2023-10-09T10:34:54;102091.81;;;19.99;76.54
79791;BME280;69278;52.220;5.172;2023-10-09T10:37:37;102089.50;;;19.96;76.08
79791;BME280;69278;52.220;5.172;2023-10-09T10:40:05;102085.31;;;19.93;76.00
79791;BME280;69278;52.220;5.172;2023-10-09T10:42:48;102090.50;;;19.95;75.66
79791;BME280;69278;52.220;5.172;2023-10-09T10:45:36;102080.47;;;19.97;75.74
79791;BME280;69278;52.220;5.172;2023-10-09T10:48:10;102087.47;;;19.90;75.83
79791;BME280;69278;52.220;5.172;2023-10-09T10:50:56;102096.34;;;19.98;75.81
79791;BME280;69278;52.220;5.172;2023-10-09T10:53:24;102089.47;;;20.04;75.86
79791;BME280;69278;52.220;5.172;2023-10-09T10:56:00;102086.31;;;20.08;75.90
79791;BME280;69278;52.220;5.172;2023-10-09T10:58:54;102086.16;;;20.10;75.84
79791;BME280;69278;52.220;5.172;2023-10-09T11:01:30;102082.97;;;20.14;75.73
79791;BME280;69278;52.220;5.172;2023-10-09T11:04:17;102082.63;;;20.17;75.16
79791;BME280;69278;52.220;5.172;2023-10-09T11:07:13;102083.00;;;20.22;74.96
79791;BME280;69278;52.220;5.172;2023-10-09T11:09:50;102080.16;;;20.24;74.55
79791;BME280;69278;52.220;5.172;2023-10-09T11:12:27;102082.31;;;20.28;74.53
79791;BME280;69278;52.220;5.172;2023-10-09T11:15:09;102081.97;;;20.31;74.58
79791;BME280;69278;52.220;5.172;2023-10-09T11:18:03;102088.00;;;20.33;74.38
79791;BME280;69278;52.220;5.172;2023-10-09T11:20:34;102090.34;;;20.36;74.55
79791;BME280;69278;52.220;5.172;2023-10-09T11:23:05;102088.66;;;20.35;74.10
79791;BME280;69278;52.220;5.172;2023-10-09T11:25:43;102089.16;;;20.39;74.12
79791;BME280;69278;52.220;5.172;2023-10-09T11:28:34;102089.97;;;20.39;74.27
79791;BME280;69278;52.220;5.172;2023-10-09T11:31:15;102081.78;;;20.41;74.31
79791;BME280;69278;52.220;5.172;2023-10-09T11:33:47;102088.00;;;20.41;74.12
79791;BME280;69278;52.220;5.172;2023-10-09T11:36:16;102071.75;;;20.43;74.03
79791;BME280;69278;52.220;5.172;2023-10-09T11:38:42;102075.59;;;20.48;74.06
79791;BME280;69278;52.220;5.172;2023-10-09T11:41:16;102088.47;;;20.53;74.42
79791;BME280;69278;52.220;5.172;2023-10-09T11:43:48;102084.75;;;20.54;74.45
79791;BME280;69278;52.220;5.172;2023-10-09T11:46:19;102086.94;;;20.59;74.32
79791;BME280;69278;52.220;5.172;2023-10-09T11:49:15;102056.53;;;20.35;73.97
79791;BME280;69278;52.220;5.172;2023-10-09T11:52:05;102083.44;;;20.50;74.36
79791;BME280;69278;52.220;5.172;2023-10-09T11:54:35;102071.56;;;20.44;74.58
79791;BME280;69278;52.220;5.172;2023-10-09T11:57:02;102070.06;;;20.50;74.59
79791;BME280;69278;52.220;5.172;2023-10-09T11:59:30;102057.69;;;20.49;74.40
79791;BME280;69278;52.220;5.172;2023-10-09T12:02:08;102051.66;;;20.47;74.73
79791;BME280;69278;52.220;5.172;2023-10-09T12:04:39;102064.03;;;20.56;74.66
79791;BME280;69278;52.220;5.172;2023-10-09T12:07:12;102067.72;;;20.55;74.47
79791;BME280;69278;52.220;5.172;2023-10-09T12:09:39;102063.19;;;20.56;74.13
79791;BME280;69278;52.220;5.172;2023-10-09T12:12:07;102056.19;;;20.46;73.96
79791;BME280;69278;52.220;5.172;2023-10-09T12:14:37;102060.19;;;20.50;74.16
79791;BME280;69278;52.220;5.172;2023-10-09T12:17:07;102056.50;;;20.51;74.22
79791;BME280;69278;52.220;5.172;2023-10-09T12:19:35;102038.66;;;20.36;74.40
79791;BME280;69278;52.220;5.172;2023-10-09T12:22:03;102058.19;;;20.52;74.25
79791;BME280;69278;52.220;5.172;2023-10-09T12:24:33;102063.72;;;20.51;74.30
79791;BME280;69278;52.220;5.172;2023-10-09T12:27:00;102059.16;;;20.51;74.38
79791;BME280;69278;52.220;5.172;2023-10-09T12:29:26;102059.34;;;20.50;74.26
79791;BME280;69278;52.220;5.172;2023-10-09T12:31:56;102059.22;;;20.43;73.90
79791;BME280;69278;52.220;5.172;2023-10-09T12:34:26;102053.53;;;20.38;74.28
79791;BME280;69278;52.220;5.172;2023-10-09T12:36:56;102063.91;;;20.41;73.93
79791;BME280;69278;52.220;5.172;2023-10-09T12:39:27;102070.44;;;20.39;74.18
79791;BME280;69278;52.220;5.172;2023-10-09T12:42:00;102073.91;;;20.39;74.12
79791;BME280;69278;52.220;5.172;2023-10-09T12:44:35;102071.59;;;20.36;74.26
79791;BME280;69278;52.220;5.172;2023-10-09T12:47:06;102065.88;;;20.39;74.36
79791;BME280;69278;52.220;5.172;2023-10-09T12:49:32;102069.41;;;20.40;74.17
79791;BME280;69278;52.220;5.172;2023-10-09T12:51:59;102075.94;;;20.37;74.36
79791;BME280;69278;52.220;5.172;2023-10-09T12:54:25;102077.94;;;20.35;74.21
79791;BME280;69278;52.220;5.172;2023-10-09T12:56:55;102078.97;;;20.34;74.30
79791;BME280;69278;52.220;5.172;2023-10-09T12:59:22;102074.47;;;20.27;74.32
79791;BME280;69278;52.220;5.172;2023-10-09T13:01:50;102079.97;;;20.25;74.41
79791;BME280;69278;52.220;5.172;2023-10-09T13:04:24;102084.31;;;20.26;74.68
79791;BME280;69278;52.220;5.172;2023-10-09T13:06:58;102072.94;;;20.16;74.66
79791;BME280;69278;52.220;5.172;2023-10-09T13:09:29;102080.16;;;20.24;74.74
79791;BME280;69278;52.220;5.172;2023-10-09T13:12:02;102082.63;;;20.25;74.88
79791;BME280;69278;52.220;5.172;2023-10-09T13:14:32;102078.13;;;20.26;74.86
79791;BME280;69278;52.220;5.172;2023-10-09T13:17:00;102071.28;;;20.23;74.57
79791;BME280;69278;52.220;5.172;2023-10-09T13:19:34;102089.16;;;20.23;74.41
79791;BME280;69278;52.220;5.172;2023-10-09T13:22:01;102087.19;;;20.25;74.53
79791;BME280;69278;52.220;5.172;2023-10-09T13:24:30;102083.00;;;20.22;74.02
79791;BME280;69278;52.220;5.172;2023-10-09T13:26:57;102084.94;;;20.20;74.26
79791;BME280;69278;52.220;5.172;2023-10-09T13:29:30;102088.47;;;20.21;74.23
79791;BME280;69278;52.220;5.172;2023-10-09T13:32:00;102085.97;;;20.19;73.92
79791;BME280;69278;52.220;5.172;2023-10-09T13:34:29;102083.31;;;20.19;74.27
79791;BME280;69278;52.220;5.172;2023-10-09T13:36:56;102070.91;;;20.18;74.37
79791;BME280;69278;52.220;5.172;2023-10-09T13:39:26;102078.63;;;20.21;74.12
79791;BME280;69278;52.220;5.172;2023-10-09T13:41:57;102084.16;;;20.28;74.18
79791;BME280;69278;52.220;5.172;2023-10-09T13:44:30;102078.78;;;20.28;73.83